Latest Weather Observations for Wulungurru (Kintore)

IDD60801

Issued at 7:31 am CST Sunday 21 December 2014 (issued every 30 minutes, with the page automatically refreshed every 10 minutes)

About weather observations | Map of weather stations | Latest weather observations for NT | Other Formats
Station Details ID: 015664 Name: WALUNGURRU AIRPORT Lat: -23.27 Lon: 129.38 Height: 454.3 m
Data from the previous 72 hours. | See also: Recent months at Wulungurru (Kintore)
Date/Time
CST
Temp
°C
App
Temp
°C
Dew
Point
Rel
Hum
%
Delta-T
°C
Wind Press
QNH
hPa
Press
MSL
hPa
Rain
since 9 am
mm
Dir
 
Spd
km/h
Gust
km/h
Spd
kts
Gust
kts
21/07:30am 27.7 28.0 19.5 61 5.4 WSW 17 24 9 13 1012.7 - 1.4
21/07:00am 25.9 27.5 20.7 73 3.5 SW 13 17 7 9 1012.3 - 1.4
21/06:30am 24.7 26.9 21.2 81 2.3 WSW 11 13 6 7 1011.9 - 1.4
21/06:00am 24.2 26.9 21.3 84 1.9 WSW 9 11 5 6 1011.4 1008.2 1.4
21/05:30am 24.3 27.5 21.2 83 2.1 SSW 6 9 3 5 1011.0 - 1.4
21/05:00am 24.6 26.8 21.1 81 2.3 SW 11 13 6 7 1010.7 - 1.4
21/04:30am 24.6 27.3 21.3 82 2.2 SW 9 9 5 5 1010.7 - 1.4
21/04:00am 24.7 27.7 21.2 81 2.3 WSW 7 9 4 5 1010.5 - 1.4
21/03:30am 25.2 28.2 21.3 79 2.6 W 7 9 4 5 1010.5 - 1.4
21/03:00am 26.0 28.4 20.8 73 3.5 NNW 9 9 5 5 1010.1 1006.8 1.4
21/02:30am 26.5 28.2 18.6 62 5.1 S 7 9 4 5 1009.6 - 1.4
21/02:00am 27.6 28.9 17.5 54 6.5 ENE 7 9 4 5 1009.5 - 1.4
21/01:30am 27.6 29.0 17.7 54 6.4 E 7 11 4 6 1009.7 - 1.4
21/01:00am 27.2 28.4 18.2 58 5.8 SE 9 17 5 9 1009.8 - 1.4
21/12:30am 27.1 28.1 19.4 62 5.1 SSE 13 17 7 9 1010.4 - 1.4
21/12:00am 27.4 29.0 19.2 61 5.4 SSE 9 13 5 7 1010.5 1007.3 1.4
 
Date/Time
CST
Temp
°C
App
Temp
°C
Dew
Point
Rel
Hum
%
Delta-T
°C
Wind Press
QNH
hPa
Press
MSL
hPa
Rain
since 9 am
mm
Dir
 
Spd
km/h
Gust
km/h
Spd
kts
Gust
kts
20/11:30pm 27.1 29.2 20.2 66 4.6 E 9 13 5 7 1010.3 - 1.4
20/11:00pm 27.6 28.8 19.1 59 5.6 S 11 13 6 7 1010.5 - 1.4
20/10:30pm 27.0 28.6 19.9 65 4.7 SW 11 15 6 8 1010.7 - 1.4
20/10:00pm 26.8 28.3 19.7 65 4.7 WSW 11 13 6 7 1010.3 - 1.4
20/09:30pm 26.9 29.8 20.7 69 4.2 SW 6 11 3 6 1010.0 - 1.4
20/09:00pm 26.9 29.4 20.3 67 4.4 SW 7 9 4 5 1009.8 1006.5 1.4
20/08:30pm 27.1 29.1 19.9 64 4.8 SW 9 9 5 5 1009.9 - 1.4
20/08:00pm 27.3 29.7 20.1 64 4.8 SW 7 9 4 5 1009.9 - 1.4
20/07:30pm 27.7 29.5 19.5 61 5.4 SW 9 11 5 6 1010.0 - 1.4
20/07:00pm 28.3 29.1 19.0 57 6.1 W 13 17 7 9 1010.3 - 1.4
20/06:30pm 28.9 28.9 18.9 54 6.6 WSW 17 24 9 13 1010.3 - 1.4
20/06:00pm 29.2 28.7 18.6 52 6.9 WSW 19 24 10 13 1010.2 1006.9 1.4
20/05:30pm 30.0 29.9 17.8 48 7.9 SW 15 19 8 10 1010.5 - 1.4
20/05:00pm 29.2 29.2 18.9 53 6.8 SW 17 22 9 12 1010.5 - 1.4
20/04:30pm 29.0 28.7 19.6 57 6.2 WSW 20 26 11 14 1010.7 - 1.2
20/04:00pm 28.9 28.7 20.6 61 5.6 WSW 22 30 12 16 1010.9 - 1.2
20/03:30pm 27.4 29.0 22.1 73 3.6 SW 17 24 9 13 1011.5 - 1.2
20/03:00pm 25.7 28.1 23.0 85 1.9 SW 15 20 8 11 1012.2 1008.9 1.2
20/02:30pm 24.0 24.3 20.3 80 2.4 W 19 26 10 14 1013.0 - 0.6
20/02:14pm 24.3 23.7 19.8 76 3.0 W 22 35 12 19 1013.3 - 0.0
20/02:00pm 26.5 23.9 21.5 74 3.4 WNW 37 48 20 26 1013.4 - 0.0
20/01:39pm 31.2 28.7 18.9 48 8.1 WNW 30 52 16 28 1013.4 - 0.0
20/01:30pm 32.8 31.7 18.6 43 9.4 WSW 22 32 12 17 1013.0 - 0.0
20/01:00pm 33.4 31.7 18.0 40 10.1 WSW 24 33 13 18 1012.6 - 0.0
20/12:30pm 35.2 35.1 17.9 36 11.4 SW 15 24 8 13 1013.0 - 0.0
20/12:00pm 33.7 33.2 17.0 37 10.8 SSW 15 24 8 13 1013.6 1010.4 0.0
20/11:30am 33.9 32.8 17.2 37 10.9 W 19 24 10 13 1014.2 - 0.0
20/11:00am 31.9 31.1 18.5 45 8.8 W 20 26 11 14 1014.4 - 0.0
20/10:30am 31.1 30.0 19.4 49 7.8 W 24 32 13 17 1014.6 - 0.0
20/10:00am 34.6 32.8 15.5 32 12.2 N 19 26 10 14 1014.3 - 0.0
20/09:30am 33.0 30.3 15.5 35 11.1 N 24 35 13 19 1014.5 - 0.0
20/09:00am 32.5 30.7 15.9 36 10.6 NNE 20 30 11 16 1014.6 1011.4 0.0
20/08:30am 31.3 30.3 16.5 41 9.5 NNE 17 30 9 16 1014.4 - 0.0
20/08:00am 30.5 30.3 17.6 46 8.4 NE 15 20 8 11 1013.8 - 0.0
20/07:30am 29.6 29.9 17.8 49 7.6 ENE 13 17 7 9 1013.4 - 0.0
20/07:00am 28.5 29.5 18.6 55 6.5 ESE 11 13 6 7 1013.3 - 0.0
20/06:30am 26.3 27.2 19.2 65 4.6 E 13 17 7 9 1012.8 - 0.0
20/06:00am 25.8 27.1 19.4 67 4.2 NE 11 15 6 8 1012.6 1009.4 0.0
20/05:30am 26.2 27.7 18.8 63 4.8 E 9 13 5 7 1012.3 - 0.0
20/05:00am 26.6 27.3 19.7 66 4.6 ENE 15 19 8 10 1012.1 - 0.0
20/04:30am 25.6 27.7 20.2 72 3.6 ENE 9 13 5 7 1011.5 - 0.0
20/04:00am 25.7 27.7 20.0 71 3.8 SE 9 11 5 6 1011.6 - 0.0
20/03:30am 26.2 28.4 20.5 71 3.8 ENE 9 11 5 6 1011.7 - 0.0
20/03:00am 26.1 29.0 20.7 72 3.6 SE 6 7 3 4 1012.2 1008.9 0.0
20/02:30am 25.8 28.6 20.8 74 3.3 SSE 7 9 4 5 1012.4 - 0.0
20/02:00am 25.7 28.6 20.7 74 3.3 SSW 6 7 3 4 1012.5 - 0.0
20/01:30am 27.2 29.5 19.8 64 4.9 ENE 7 9 4 5 1012.9 - 0.0
20/01:00am 27.5 28.8 19.3 61 5.4 ENE 11 13 6 7 1013.2 - 0.0
20/12:30am 27.9 28.7 19.1 58 5.8 ENE 13 15 7 8 1013.5 - 0.0
20/12:00am 28.0 29.5 19.0 58 5.9 E 9 11 5 6 1013.5 1010.3 0.0
 
Date/Time
CST
Temp
°C
App
Temp
°C
Dew
Point
Rel
Hum
%
Delta-T
°C
Wind Press
QNH
hPa
Press
MSL
hPa
Rain
since 9 am
mm
Dir
 
Spd
km/h
Gust
km/h
Spd
kts
Gust
kts
19/11:30pm 28.2 29.4 19.1 57 6.0 ENE 11 13 6 7 1013.5 - 0.0
19/11:00pm 28.4 31.2 20.4 62 5.4 NE 6 9 3 5 1013.6 - 0.0
19/10:30pm 28.5 30.6 19.4 57 6.0 N 7 9 4 5 1013.3 - 0.0
19/10:00pm 29.3 29.8 18.4 51 7.1 NE 13 17 7 9 1012.9 - 0.0
19/09:30pm 29.9 30.0 18.3 49 7.6 ENE 15 19 8 10 1013.1 - 0.0
19/09:00pm 30.8 30.8 18.2 47 8.2 ENE 15 19 8 10 1013.0 1009.8 0.0
19/08:30pm 30.9 31.6 18.9 48 7.9 SSE 13 15 7 8 1012.8 - 0.0
19/08:00pm 31.5 32.8 19.2 48 8.2 S 11 13 6 7 1012.4 - 0.0
19/07:30pm 32.8 33.2 18.2 42 9.6 S 13 17 7 9 1012.0 - 0.0
19/07:00pm 34.2 34.1 17.0 36 11.2 S 13 17 7 9 1011.9 - 0.0
19/06:30pm 35.1 35.4 16.9 34 11.8 SSW 11 17 6 9 1011.7 - 0.0
19/06:00pm 35.7 35.8 17.4 33 12.0 S 13 24 7 13 1011.5 1008.3 0.0
19/05:30pm 35.7 35.6 16.9 32 12.3 S 13 17 7 9 1011.6 - 0.0
19/05:00pm 36.0 36.2 16.7 31 12.6 SSW 11 19 6 10 1011.9 - 0.0
19/04:30pm 37.0 38.1 17.1 31 13.1 WNW 7 17 4 9 1012.2 - 0.0
19/04:00pm 35.9 36.0 16.6 31 12.5 SSW 11 19 6 10 1012.7 - 0.0
19/03:30pm 35.5 36.3 17.2 33 12.0 SE 9 15 5 8 1013.2 - 0.0
19/03:00pm 35.2 36.0 17.4 34 11.7 E 9 13 5 7 1013.6 1010.4 0.0
19/02:30pm 34.2 35.2 17.8 37 10.8 N 9 17 5 9 1013.9 - 0.0
19/02:00pm 34.7 36.1 18.7 38 10.7 ENE 9 20 5 11 1014.4 - 0.0
19/01:30pm 34.2 36.4 19.1 41 10.1 ESE 6 9 3 5 1014.9 - 0.0
19/01:00pm 33.2 34.4 18.2 41 9.9 N 9 15 5 8 1015.3 - 0.0
19/12:30pm 33.2 35.1 18.9 42 9.5 ESE 7 17 4 9 1015.7 - 0.0
19/12:00pm 31.9 34.1 19.5 47 8.3 SSW 7 17 4 9 1016.0 1012.8 0.0
19/11:30am 32.2 34.3 20.1 48 8.2 ENE 9 15 5 8 1016.2 - 0.0
19/11:00am 30.6 32.2 19.9 52 7.2 E 11 17 6 9 1016.1 - 0.0
19/10:30am 28.4 30.6 20.4 62 5.4 ESE 9 15 5 8 1016.5 - 0.0
19/10:00am 27.1 30.1 20.9 69 4.2 ESE 6 7 3 4 1016.5 - 0.0
19/09:30am 26.2 30.4 21.0 73 3.5 CALM 0 4 0 2 1016.5 - 0.0
19/09:00am 25.1 29.6 21.6 81 2.4 CALM 0 6 0 3 1016.2 1013.0 1.2
19/08:30am 24.1 26.3 21.2 84 1.9 N 11 17 6 9 1016.0 - 1.2
19/08:00am 25.1 27.8 21.4 80 2.5 N 9 20 5 11 1016.1 - 1.2
19/07:30am 23.9 28.5 21.8 88 1.4 CALM 0 2 0 1 1015.6 - 1.2
19/07:00am 22.4 24.3 20.5 89 1.3 SW 11 13 6 7 1015.7 - 1.2
19/06:30am 22.1 22.0 19.5 85 1.7 SSW 19 26 10 14 1016.1 - 1.0
19/06:00am 21.6 22.0 19.9 90 1.1 SSW 17 22 9 12 1016.8 1013.6 1.0
19/05:30am 20.8 20.0 20.1 96 0.5 S 24 37 13 20 1017.0 - 0.8
19/05:14am 21.9 19.9 19.1 84 1.8 S 28 46 15 25 1016.6 - 0.0
19/05:00am 22.2 20.8 19.6 85 1.7 S 26 37 14 20 1016.3 - 0.0
19/04:30am 22.6 20.2 19.9 85 1.8 S 32 44 17 24 1015.8 - 0.0
19/04:00am 23.1 20.6 20.2 84 1.9 SSW 33 52 18 28 1015.3 - 0.0
19/03:30am 23.4 20.0 20.7 85 1.8 SW 39 54 21 29 1015.1 - 0.0
19/03:00am 23.7 20.2 19.6 78 2.7 SW 37 56 20 30 1015.1 1011.9 0.0
19/02:48am 24.4 20.3 19.2 73 3.4 SW 39 63 21 34 1014.4 - 0.0
19/02:43am 26.1 21.2 19.0 65 4.6 SW 43 56 23 30 1014.9 - 0.0
19/02:30am 28.6 28.5 18.7 55 6.5 ENE 17 24 9 13 1013.2 - 0.0
19/02:00am 28.3 28.6 19.5 59 5.8 E 17 22 9 12 1012.6 - 0.0
19/01:30am 28.4 28.6 19.3 57 6.0 ENE 17 20 9 11 1012.2 - 0.0
19/01:00am 28.7 29.2 19.3 56 6.2 ENE 15 20 8 11 1012.5 - 0.0
19/12:30am 29.2 28.6 19.8 57 6.3 E 22 28 12 15 1012.6 - 0.0
19/12:00am 30.8 29.5 18.2 47 8.2 E 22 30 12 16 1012.7 1009.5 0.0
 
Date/Time
CST
Temp
°C
App
Temp
°C
Dew
Point
Rel
Hum
%
Delta-T
°C
Wind Press
QNH
hPa
Press
MSL
hPa
Rain
since 9 am
mm
Dir
 
Spd
km/h
Gust
km/h
Spd
kts
Gust
kts
18/11:30pm 31.0 30.2 18.4 47 8.3 E 20 32 11 17 1012.5 - 0.0
18/11:00pm 31.8 31.0 18.0 43 9.0 E 19 28 10 15 1012.5 - 0.0
18/10:30pm 32.0 31.3 18.2 43 9.1 E 19 28 10 15 1012.3 - 0.0
18/10:00pm 30.9 32.1 19.9 52 7.4 E 13 15 7 8 1012.2 - 0.0
18/09:30pm 32.4 33.3 19.3 46 8.7 ENE 13 17 7 9 1011.4 - 0.0
18/09:00pm 32.1 33.4 19.4 47 8.5 E 11 15 6 8 1011.2 1008.0 0.0
18/08:30pm 32.6 33.3 18.8 44 9.1 E 13 20 7 11 1010.8 - 0.0
18/08:00pm 33.0 34.1 18.0 41 9.8 ESE 9 15 5 8 1010.2 - 0.0
18/07:30pm 33.7 33.8 17.4 37 10.6 ESE 13 19 7 10 1009.8 - 0.0
18/07:00pm 35.2 35.3 16.5 33 12.1 S 11 15 6 8 1009.6 - 0.0
18/06:30pm 35.9 34.7 16.1 30 12.8 S 17 24 9 13 1009.6 - 0.0
18/06:00pm 36.4 36.2 17.5 32 12.5 S 15 22 8 12 1009.6 1006.3 0.0
18/05:30pm 36.2 35.9 17.4 33 12.4 S 15 24 8 13 1009.5 - 0.0
18/05:00pm 36.5 35.7 16.1 29 13.2 S 15 26 8 14 1009.5 - 0.0
18/04:30pm 36.2 37.4 18.3 34 11.9 SW 9 20 5 11 1009.7 - 0.0
18/04:00pm 35.7 35.4 17.4 33 12.0 S 15 24 8 13 1010.1 - 0.0
18/03:30pm 36.1 36.5 18.2 34 11.9 S 13 20 7 11 1010.3 - 0.0
18/03:00pm 35.6 35.5 19.5 38 10.9 S 19 28 10 15 1010.7 1007.5 0.0
18/02:30pm 34.1 36.2 19.0 41 10.1 S 6 13 3 7 1011.1 - 0.0
18/02:00pm 34.5 36.7 19.7 41 10.0 E 7 13 4 7 1011.3 - 0.0
18/01:30pm 33.4 34.8 19.5 44 9.3 SSW 11 17 6 9 1011.5 - 0.0
18/01:00pm 31.8 33.9 20.1 50 7.9 WSW 9 20 5 11 1012.0 - 0.0
18/12:30pm 31.2 33.5 21.4 56 6.7 ENE 11 19 6 10 1012.3 - 0.0
18/12:00pm 29.9 30.7 20.7 57 6.2 ENE 17 22 9 12 1011.9 1008.6 0.0
18/11:30am 27.9 29.1 21.4 67 4.4 ENE 17 22 9 12 1012.0 - 0.0
18/11:00am 27.5 28.9 21.8 71 3.9 ENE 17 24 9 13 1012.3 - 0.0
18/10:30am 26.9 28.8 22.7 78 2.9 NE 17 20 9 11 1013.0 - 0.0
18/10:00am 24.7 25.7 22.2 86 1.7 NE 20 26 11 14 1013.2 - 0.0
18/09:30am 23.5 25.5 23.0 97 0.3 NE 17 20 9 11 1013.7 - 0.0
18/09:00am 22.3 23.4 22.3 100 0.0 NE 20 26 11 14 1012.9 1009.7 15.8
18/08:30am 22.1 23.3 22.1 100 0.0 ENE 19 24 10 13 1013.7 - 15.8
18/08:00am 21.9 22.8 21.9 100 0.0 ENE 20 24 11 13 1013.5 - 15.8

Other Formats:

Comma delimited format used in spreadsheet applications
http://www.bom.gov.au/fwo/IDD60801/IDD60801.94321.axf

JavaScript Object Notation format (JSON) in row-major order
http://www.bom.gov.au/fwo/IDD60801/IDD60801.94321.json